sensor_id;sensor_type;location;lat;lon;timestamp;pressure;altitude;pressure_sealevel;temperature;humidity
68197;BME280;55019;49.382;11.358;2023-05-19T00:01:14;97193.84;;;11.17;54.99
68197;BME280;55019;49.382;11.358;2023-05-19T00:03:54;97187.97;;;11.07;55.39
68197;BME280;55019;49.382;11.358;2023-05-19T00:06:24;97200.63;;;11.18;54.64
68197;BME280;55019;49.382;11.358;2023-05-19T00:09:04;97196.13;;;11.20;55.59
68197;BME280;55019;49.382;11.358;2023-05-19T00:11:32;97184.41;;;11.08;55.17
68197;BME280;55019;49.382;11.358;2023-05-19T00:14:05;97193.97;;;10.90;55.26
68197;BME280;55019;49.382;11.358;2023-05-19T00:16:32;97200.41;;;11.11;55.39
68197;BME280;55019;49.382;11.358;2023-05-19T00:19:01;97191.63;;;11.22;55.32
68197;BME280;55019;49.382;11.358;2023-05-19T00:21:28;97185.50;;;11.05;55.47
68197;BME280;55019;49.382;11.358;2023-05-19T00:23:56;97181.16;;;11.06;56.48
68197;BME280;55019;49.382;11.358;2023-05-19T00:26:35;97180.66;;;11.02;55.51
68197;BME280;55019;49.382;11.358;2023-05-19T00:29:39;97173.75;;;11.11;55.34
68197;BME280;55019;49.382;11.358;2023-05-19T00:32:05;97192.97;;;11.34;55.39
68197;BME280;55019;49.382;11.358;2023-05-19T00:34:31;97184.81;;;11.21;55.90
68197;BME280;55019;49.382;11.358;2023-05-19T00:36:57;97193.16;;;11.32;55.24
68197;BME280;55019;49.382;11.358;2023-05-19T00:39:47;97180.91;;;11.17;54.37
68197;BME280;55019;49.382;11.358;2023-05-19T00:42:13;97187.41;;;11.21;55.30
68197;BME280;55019;49.382;11.358;2023-05-19T00:44:40;97175.25;;;10.96;54.95
68197;BME280;55019;49.382;11.358;2023-05-19T00:47:07;97164.38;;;11.10;54.56
68197;BME280;55019;49.382;11.358;2023-05-19T00:49:33;97183.19;;;11.20;54.82
68197;BME280;55019;49.382;11.358;2023-05-19T00:52:00;97164.63;;;10.99;55.42
68197;BME280;55019;49.382;11.358;2023-05-19T00:54:35;97164.47;;;11.00;55.81
68197;BME280;55019;49.382;11.358;2023-05-19T00:57:02;97175.03;;;11.07;54.38
68197;BME280;55019;49.382;11.358;2023-05-19T00:59:31;97178.16;;;11.18;55.76
68197;BME280;55019;49.382;11.358;2023-05-19T01:13:48;97168.94;;;11.16;54.96
68197;BME280;55019;49.382;11.358;2023-05-19T01:16:31;97174.38;;;11.05;56.88
68197;BME280;55019;49.382;11.358;2023-05-19T01:30:25;97151.84;;;10.97;55.27
68197;BME280;55019;49.382;11.358;2023-05-19T01:33:08;97147.78;;;10.95;56.02
68197;BME280;55019;49.382;11.358;2023-05-19T01:35:40;97137.75;;;10.92;54.61
68197;BME280;55019;49.382;11.358;2023-05-19T01:38:21;97140.94;;;10.86;55.23
68197;BME280;55019;49.382;11.358;2023-05-19T01:41:26;97165.03;;;11.12;54.45
68197;BME280;55019;49.382;11.358;2023-05-19T01:43:53;97147.78;;;10.95;54.63
68197;BME280;55019;49.382;11.358;2023-05-19T01:46:22;97178.41;;;11.07;54.23
68197;BME280;55019;49.382;11.358;2023-05-19T01:49:01;97174.06;;;11.08;54.65
68197;BME280;55019;49.382;11.358;2023-05-19T01:51:31;97156.84;;;10.73;55.94
68197;BME280;55019;49.382;11.358;2023-05-19T01:53:58;97141.19;;;10.75;55.45
68197;BME280;55019;49.382;11.358;2023-05-19T01:56:51;97150.06;;;10.72;55.56
68197;BME280;55019;49.382;11.358;2023-05-19T01:59:56;97170.63;;;10.82;56.07
68197;BME280;55019;49.382;11.358;2023-05-19T02:06:01;97160.47;;;10.63;55.80
68197;BME280;55019;49.382;11.358;2023-05-19T02:14:44;97169.06;;;10.89;57.43
68197;BME280;55019;49.382;11.358;2023-05-19T02:17:22;97165.34;;;10.83;57.78
68197;BME280;55019;49.382;11.358;2023-05-19T02:19:55;97167.56;;;10.78;57.80
68197;BME280;55019;49.382;11.358;2023-05-19T02:22:38;97170.09;;;10.96;56.70
68197;BME280;55019;49.382;11.358;2023-05-19T02:25:14;97154.28;;;10.73;57.61
68197;BME280;55019;49.382;11.358;2023-05-19T02:28:01;97163.47;;;10.93;56.31
68197;BME280;55019;49.382;11.358;2023-05-19T02:30:59;97175.16;;;10.80;57.48
68197;BME280;55019;49.382;11.358;2023-05-19T02:33:32;97151.81;;;10.72;56.65
68197;BME280;55019;49.382;11.358;2023-05-19T02:35:58;97145.03;;;10.71;57.50
68197;BME280;55019;49.382;11.358;2023-05-19T02:38:28;97146.88;;;10.78;57.02
68197;BME280;55019;49.382;11.358;2023-05-19T02:40:54;97155.19;;;10.90;57.50
68197;BME280;55019;49.382;11.358;2023-05-19T02:43:24;97142.72;;;10.85;57.65
68197;BME280;55019;49.382;11.358;2023-05-19T02:45:50;97144.19;;;10.88;56.84
68197;BME280;55019;49.382;11.358;2023-05-19T02:48:26;97127.91;;;10.70;58.67
68197;BME280;55019;49.382;11.358;2023-05-19T02:51:13;97123.84;;;10.67;57.47
68197;BME280;55019;49.382;11.358;2023-05-19T02:54:00;97130.94;;;10.65;57.39
68197;BME280;55019;49.382;11.358;2023-05-19T02:56:34;97121.59;;;10.47;57.90
68197;BME280;55019;49.382;11.358;2023-05-19T02:59:19;97127.19;;;10.60;57.95
68197;BME280;55019;49.382;11.358;2023-05-19T03:02:04;97130.28;;;10.46;57.97
68197;BME280;55019;49.382;11.358;2023-05-19T03:04:34;97121.88;;;10.44;57.86
68197;BME280;55019;49.382;11.358;2023-05-19T03:07:09;97130.78;;;10.67;58.05
68197;BME280;55019;49.382;11.358;2023-05-19T03:09:48;97142.16;;;10.74;58.00
68197;BME280;55019;49.382;11.358;2023-05-19T03:12:17;97116.38;;;10.64;58.20
68197;BME280;55019;49.382;11.358;2023-05-19T03:15:12;97141.72;;;10.61;58.77
68197;BME280;55019;49.382;11.358;2023-05-19T03:17:40;97119.38;;;10.52;59.13
68197;BME280;55019;49.382;11.358;2023-05-19T03:20:35;97126.59;;;10.31;58.64
68197;BME280;55019;49.382;11.358;2023-05-19T03:23:27;97148.00;;;10.41;59.54
68197;BME280;55019;49.382;11.358;2023-05-19T03:26:09;97133.16;;;10.43;59.61
68197;BME280;55019;49.382;11.358;2023-05-19T03:29:06;97144.63;;;10.58;60.08
68197;BME280;55019;49.382;11.358;2023-05-19T03:32:31;97141.00;;;10.51;60.07
68197;BME280;55019;49.382;11.358;2023-05-19T03:35:01;97141.75;;;10.43;60.70
68197;BME280;55019;49.382;11.358;2023-05-19T03:37:30;97157.06;;;10.45;61.23
68197;BME280;55019;49.382;11.358;2023-05-19T03:40:05;97134.22;;;10.32;60.47
68197;BME280;55019;49.382;11.358;2023-05-19T03:42:40;97147.34;;;10.56;60.83
68197;BME280;55019;49.382;11.358;2023-05-19T03:45:11;97158.56;;;10.65;60.12
68197;BME280;55019;49.382;11.358;2023-05-19T03:48:25;97142.53;;;10.44;60.16
68197;BME280;55019;49.382;11.358;2023-05-19T03:51:42;97155.91;;;10.57;60.97
68197;BME280;55019;49.382;11.358;2023-05-19T03:55:03;97140.41;;;10.39;60.32
68197;BME280;55019;49.382;11.358;2023-05-19T03:57:30;97148.94;;;10.57;60.63
68197;BME280;55019;49.382;11.358;2023-05-19T03:59:58;97143.59;;;10.51;60.28
68197;BME280;55019;49.382;11.358;2023-05-19T04:02:40;97150.16;;;10.63;60.81
68197;BME280;55019;49.382;11.358;2023-05-19T04:05:13;97155.31;;;10.63;61.74
68197;BME280;55019;49.382;11.358;2023-05-19T04:07:51;97154.94;;;10.58;61.12
68197;BME280;55019;49.382;11.358;2023-05-19T04:10:26;97158.97;;;10.78;60.84
68197;BME280;55019;49.382;11.358;2023-05-19T04:12:55;97163.91;;;10.89;60.46
68197;BME280;55019;49.382;11.358;2023-05-19T04:15:31;97156.50;;;10.94;60.29
68197;BME280;55019;49.382;11.358;2023-05-19T04:18:38;97147.25;;;10.66;60.66
68197;BME280;55019;49.382;11.358;2023-05-19T04:21:13;97153.59;;;10.71;61.23
68197;BME280;55019;49.382;11.358;2023-05-19T04:24:43;97140.47;;;10.65;61.17
68197;BME280;55019;49.382;11.358;2023-05-19T04:27:39;97153.16;;;10.76;61.43
68197;BME280;55019;49.382;11.358;2023-05-19T04:30:56;97148.28;;;10.73;60.63
68197;BME280;55019;49.382;11.358;2023-05-19T04:33:26;97157.31;;;10.94;60.93
68197;BME280;55019;49.382;11.358;2023-05-19T04:35:54;97167.56;;;11.04;60.05
68197;BME280;55019;49.382;11.358;2023-05-19T04:38:27;97156.81;;;10.91;60.67
68197;BME280;55019;49.382;11.358;2023-05-19T04:41:02;97172.31;;;11.16;60.41
68197;BME280;55019;49.382;11.358;2023-05-19T04:43:30;97167.09;;;10.83;60.72
68197;BME280;55019;49.382;11.358;2023-05-19T04:45:56;97167.31;;;10.89;61.18
68197;BME280;55019;49.382;11.358;2023-05-19T04:48:22;97162.88;;;10.82;61.44
68197;BME280;55019;49.382;11.358;2023-05-19T04:50:49;97165.41;;;11.17;60.97
68197;BME280;55019;49.382;11.358;2023-05-19T04:53:16;97171.44;;;11.00;61.23
68197;BME280;55019;49.382;11.358;2023-05-19T04:55:43;97165.50;;;11.07;61.23
68197;BME280;55019;49.382;11.358;2023-05-19T04:58:10;97161.25;;;10.81;61.10
68197;BME280;55019;49.382;11.358;2023-05-19T05:00:36;97161.09;;;11.00;60.68
68197;BME280;55019;49.382;11.358;2023-05-19T05:03:05;97166.03;;;10.93;61.41
68197;BME280;55019;49.382;11.358;2023-05-19T05:05:33;97167.38;;;11.23;61.08
68197;BME280;55019;49.382;11.358;2023-05-19T05:07:59;97163.59;;;11.43;60.97
68197;BME280;55019;49.382;11.358;2023-05-19T05:10:28;97163.75;;;11.41;59.52
68197;BME280;55019;49.382;11.358;2023-05-19T05:12:54;97167.88;;;11.51;59.99
68197;BME280;55019;49.382;11.358;2023-05-19T05:15:20;97167.16;;;11.42;61.71
68197;BME280;55019;49.382;11.358;2023-05-19T05:17:49;97176.09;;;11.22;59.96
68197;BME280;55019;49.382;11.358;2023-05-19T05:20:15;97175.75;;;11.17;60.27
68197;BME280;55019;49.382;11.358;2023-05-19T05:22:41;97163.41;;;11.11;61.51
68197;BME280;55019;49.382;11.358;2023-05-19T05:25:08;97159.34;;;11.08;61.47
68197;BME280;55019;49.382;11.358;2023-05-19T05:27:34;97158.84;;;11.30;60.53
68197;BME280;55019;49.382;11.358;2023-05-19T05:30:02;97163.25;;;11.38;61.39
68197;BME280;55019;49.382;11.358;2023-05-19T05:32:28;97154.38;;;11.40;60.08
68197;BME280;55019;49.382;11.358;2023-05-19T05:34:54;97162.25;;;11.31;61.09
68197;BME280;55019;49.382;11.358;2023-05-19T05:37:20;97155.72;;;11.19;61.91
68197;BME280;55019;49.382;11.358;2023-05-19T05:39:46;97159.06;;;11.44;62.44
68197;BME280;55019;49.382;11.358;2023-05-19T05:42:12;97158.94;;;11.21;61.40
68197;BME280;55019;49.382;11.358;2023-05-19T05:44:39;97164.50;;;11.59;61.33
68197;BME280;55019;49.382;11.358;2023-05-19T05:47:06;97167.22;;;11.24;60.91
68197;BME280;55019;49.382;11.358;2023-05-19T05:49:32;97165.22;;;11.43;62.04
68197;BME280;55019;49.382;11.358;2023-05-19T05:52:01;97160.34;;;11.41;61.42
68197;BME280;55019;49.382;11.358;2023-05-19T05:54:28;97158.09;;;11.45;61.10
68197;BME280;55019;49.382;11.358;2023-05-19T05:56:54;97167.50;;;11.46;61.84
68197;BME280;55019;49.382;11.358;2023-05-19T05:59:21;97163.44;;;11.69;61.46
68197;BME280;55019;49.382;11.358;2023-05-19T06:01:46;97156.97;;;11.73;61.65
68197;BME280;55019;49.382;11.358;2023-05-19T06:04:15;97155.00;;;12.09;60.90
68197;BME280;55019;49.382;11.358;2023-05-19T06:06:41;97159.38;;;12.16;59.85
68197;BME280;55019;49.382;11.358;2023-05-19T06:09:07;97159.50;;;11.99;60.34
68197;BME280;55019;49.382;11.358;2023-05-19T06:11:33;97154.19;;;11.67;60.81
68197;BME280;55019;49.382;11.358;2023-05-19T06:13:59;97163.25;;;12.12;60.28
68197;BME280;55019;49.382;11.358;2023-05-19T06:16:52;97168.56;;;12.03;61.27
68197;BME280;55019;49.382;11.358;2023-05-19T06:19:18;97158.75;;;12.30;61.33
68197;BME280;55019;49.382;11.358;2023-05-19T06:21:46;97159.53;;;12.23;59.62
68197;BME280;55019;49.382;11.358;2023-05-19T06:24:13;97155.47;;;12.04;59.49
68197;BME280;55019;49.382;11.358;2023-05-19T06:26:40;97154.56;;;12.29;59.48
68197;BME280;55019;49.382;11.358;2023-05-19T06:29:06;97157.41;;;12.02;59.10
68197;BME280;55019;49.382;11.358;2023-05-19T06:31:31;97159.03;;;12.03;59.55
68197;BME280;55019;49.382;11.358;2023-05-19T06:34:07;97153.22;;;12.09;59.49
68197;BME280;55019;49.382;11.358;2023-05-19T06:36:38;97151.31;;;12.43;59.87
68197;BME280;55019;49.382;11.358;2023-05-19T06:39:06;97150.06;;;12.79;58.65
68197;BME280;55019;49.382;11.358;2023-05-19T06:41:31;97153.59;;;12.86;58.52
68197;BME280;55019;49.382;11.358;2023-05-19T06:43:57;97150.38;;;13.00;57.63
68197;BME280;55019;49.382;11.358;2023-05-19T06:46:23;97150.75;;;13.59;57.53
68197;BME280;55019;49.382;11.358;2023-05-19T06:48:49;97154.75;;;13.70;55.13
68197;BME280;55019;49.382;11.358;2023-05-19T06:51:18;97146.84;;;13.94;55.73
68197;BME280;55019;49.382;11.358;2023-05-19T06:53:48;97144.19;;;13.71;53.92
68197;BME280;55019;49.382;11.358;2023-05-19T06:56:14;97139.69;;;14.04;55.90
68197;BME280;55019;49.382;11.358;2023-05-19T06:58:40;97155.63;;;13.93;53.68
68197;BME280;55019;49.382;11.358;2023-05-19T07:01:06;97159.44;;;14.21;53.97
68197;BME280;55019;49.382;11.358;2023-05-19T07:03:38;97144.22;;;14.02;53.02
68197;BME280;55019;49.382;11.358;2023-05-19T07:06:04;97152.63;;;14.42;53.04
68197;BME280;55019;49.382;11.358;2023-05-19T07:08:30;97147.84;;;14.90;53.82
68197;BME280;55019;49.382;11.358;2023-05-19T07:10:59;97149.75;;;14.37;53.67
68197;BME280;55019;49.382;11.358;2023-05-19T07:13:24;97135.84;;;14.22;55.03
68197;BME280;55019;49.382;11.358;2023-05-19T07:15:51;97144.34;;;14.39;54.12
68197;BME280;55019;49.382;11.358;2023-05-19T07:18:20;97146.81;;;14.62;54.11
68197;BME280;55019;49.382;11.358;2023-05-19T07:20:46;97133.88;;;14.54;54.08
68197;BME280;55019;49.382;11.358;2023-05-19T07:23:12;97131.94;;;14.26;53.35
68197;BME280;55019;49.382;11.358;2023-05-19T07:25:38;97129.50;;;14.25;53.64
68197;BME280;55019;49.382;11.358;2023-05-19T07:28:03;97133.56;;;14.49;54.36
68197;BME280;55019;49.382;11.358;2023-05-19T07:30:29;97123.16;;;14.49;53.65
68197;BME280;55019;49.382;11.358;2023-05-19T07:32:55;97134.38;;;14.28;54.56
68197;BME280;55019;49.382;11.358;2023-05-19T07:35:20;97126.50;;;14.80;52.34
68197;BME280;55019;49.382;11.358;2023-05-19T07:37:50;97124.00;;;15.01;51.89
68197;BME280;55019;49.382;11.358;2023-05-19T07:40:17;97127.31;;;14.95;53.57
68197;BME280;55019;49.382;11.358;2023-05-19T07:42:43;97114.66;;;14.92;51.96
68197;BME280;55019;49.382;11.358;2023-05-19T07:45:09;97118.91;;;15.59;52.57
68197;BME280;55019;49.382;11.358;2023-05-19T07:47:35;97120.38;;;15.10;51.08
68197;BME280;55019;49.382;11.358;2023-05-19T07:50:01;97114.44;;;15.16;51.49
68197;BME280;55019;49.382;11.358;2023-05-19T07:52:27;97113.31;;;15.33;51.25
68197;BME280;55019;49.382;11.358;2023-05-19T07:54:53;97116.34;;;15.51;51.30
68197;BME280;55019;49.382;11.358;2023-05-19T07:57:19;97118.06;;;14.56;51.00
68197;BME280;55019;49.382;11.358;2023-05-19T07:59:44;97122.00;;;15.11;52.06
68197;BME280;55019;49.382;11.358;2023-05-19T08:02:10;97126.56;;;15.09;51.95
68197;BME280;55019;49.382;11.358;2023-05-19T08:04:36;97125.97;;;14.99;51.28
68197;BME280;55019;49.382;11.358;2023-05-19T08:07:01;97125.97;;;14.85;50.98
68197;BME280;55019;49.382;11.358;2023-05-19T08:09:27;97136.22;;;14.42;51.97
68197;BME280;55019;49.382;11.358;2023-05-19T08:11:53;97127.78;;;14.40;53.40
68197;BME280;55019;49.382;11.358;2023-05-19T08:14:19;97131.19;;;14.18;52.35
68197;BME280;55019;49.382;11.358;2023-05-19T08:16:47;97123.03;;;14.21;53.08
68197;BME280;55019;49.382;11.358;2023-05-19T08:19:13;97122.00;;;14.30;52.93
68197;BME280;55019;49.382;11.358;2023-05-19T08:21:39;97119.91;;;14.25;52.99
68197;BME280;55019;49.382;11.358;2023-05-19T08:24:07;97116.41;;;14.10;53.25
68197;BME280;55019;49.382;11.358;2023-05-19T08:26:33;97114.22;;;14.30;54.28
68197;BME280;55019;49.382;11.358;2023-05-19T08:28:59;97112.44;;;14.30;54.61
68197;BME280;55019;49.382;11.358;2023-05-19T08:31:24;97108.81;;;14.53;54.52
68197;BME280;55019;49.382;11.358;2023-05-19T08:33:50;97113.66;;;14.12;53.72
68197;BME280;55019;49.382;11.358;2023-05-19T08:36:17;97115.47;;;14.34;53.88
68197;BME280;55019;49.382;11.358;2023-05-19T08:38:42;97112.88;;;14.34;53.40
68197;BME280;55019;49.382;11.358;2023-05-19T08:41:08;97103.22;;;14.64;52.97
68197;BME280;55019;49.382;11.358;2023-05-19T08:43:34;97105.09;;;15.22;51.95
68197;BME280;55019;49.382;11.358;2023-05-19T08:46:00;97094.63;;;15.44;51.43
68197;BME280;55019;49.382;11.358;2023-05-19T08:48:28;97106.88;;;15.07;52.11
68197;BME280;55019;49.382;11.358;2023-05-19T08:53:49;97093.44;;;15.76;51.59
68197;BME280;55019;49.382;11.358;2023-05-19T08:56:20;97099.47;;;15.76;50.10
68197;BME280;55019;49.382;11.358;2023-05-19T08:58:48;97096.16;;;16.03;50.38
68197;BME280;55019;49.382;11.358;2023-05-19T09:01:14;97099.28;;;16.13;49.52
68197;BME280;55019;49.382;11.358;2023-05-19T09:03:42;97101.81;;;16.42;48.47
68197;BME280;55019;49.382;11.358;2023-05-19T09:06:09;97092.47;;;16.33;50.06
68197;BME280;55019;49.382;11.358;2023-05-19T09:08:37;97089.25;;;16.10;48.41
68197;BME280;55019;49.382;11.358;2023-05-19T09:11:03;97095.63;;;16.28;48.39
68197;BME280;55019;49.382;11.358;2023-05-19T09:13:29;97102.69;;;16.49;49.08
68197;BME280;55019;49.382;11.358;2023-05-19T09:15:56;97098.34;;;16.35;49.93
68197;BME280;55019;49.382;11.358;2023-05-19T09:18:23;97095.53;;;15.51;49.78
68197;BME280;55019;49.382;11.358;2023-05-19T09:20:54;97099.84;;;15.30;51.38
68197;BME280;55019;49.382;11.358;2023-05-19T09:23:26;97094.88;;;15.20;50.58
68197;BME280;55019;49.382;11.358;2023-05-19T09:25:53;97097.06;;;15.46;50.37
68197;BME280;55019;49.382;11.358;2023-05-19T09:28:25;97084.66;;;15.62;50.16
68197;BME280;55019;49.382;11.358;2023-05-19T09:31:10;97075.81;;;15.78;51.16
68197;BME280;55019;49.382;11.358;2023-05-19T09:33:38;97079.34;;;15.85;50.26
68197;BME280;55019;49.382;11.358;2023-05-19T09:36:04;97091.50;;;15.49;51.80
68197;BME280;55019;49.382;11.358;2023-05-19T09:38:31;97082.94;;;15.69;50.75
68197;BME280;55019;49.382;11.358;2023-05-19T09:40:58;97083.06;;;15.32;50.73
68197;BME280;55019;49.382;11.358;2023-05-19T09:43:27;97088.63;;;15.58;50.90
68197;BME280;55019;49.382;11.358;2023-05-19T09:45:57;97080.31;;;15.84;50.17
68197;BME280;55019;49.382;11.358;2023-05-19T09:48:25;97069.75;;;16.27;49.64
68197;BME280;55019;49.382;11.358;2023-05-19T09:50:52;97079.41;;;16.47;49.14
68197;BME280;55019;49.382;11.358;2023-05-19T09:53:18;97075.31;;;16.87;47.54
68197;BME280;55019;49.382;11.358;2023-05-19T09:55:45;97063.91;;;17.22;48.15
68197;BME280;55019;49.382;11.358;2023-05-19T09:58:17;97060.50;;;17.55;45.40
68197;BME280;55019;49.382;11.358;2023-05-19T10:00:47;97058.78;;;17.35;45.39
68197;BME280;55019;49.382;11.358;2023-05-19T10:03:14;97053.41;;;17.15;45.77
68197;BME280;55019;49.382;11.358;2023-05-19T10:05:42;97057.22;;;17.46;47.52
68197;BME280;55019;49.382;11.358;2023-05-19T10:08:08;97057.22;;;17.13;46.66
68197;BME280;55019;49.382;11.358;2023-05-19T10:10:36;97059.53;;;17.69;45.85
68197;BME280;55019;49.382;11.358;2023-05-19T10:13:03;97047.72;;;17.79;46.88
68197;BME280;55019;49.382;11.358;2023-05-19T10:15:29;97039.38;;;18.16;45.89
68197;BME280;55019;49.382;11.358;2023-05-19T10:17:55;97044.06;;;18.27;44.95
68197;BME280;55019;49.382;11.358;2023-05-19T10:20:21;97034.09;;;18.03;44.35
68197;BME280;55019;49.382;11.358;2023-05-19T10:22:47;97031.13;;;18.19;44.69
68197;BME280;55019;49.382;11.358;2023-05-19T10:25:14;97026.06;;;19.41;45.59
68197;BME280;55019;49.382;11.358;2023-05-19T10:28:04;97019.34;;;20.02;42.91
68197;BME280;55019;49.382;11.358;2023-05-19T10:30:39;97019.91;;;20.41;42.09
68197;BME280;55019;49.382;11.358;2023-05-19T10:33:08;97023.84;;;20.26;42.02
68197;BME280;55019;49.382;11.358;2023-05-19T10:38:29;97015.75;;;19.90;41.23
68197;BME280;55019;49.382;11.358;2023-05-19T10:41:11;97023.00;;;19.44;42.00
68197;BME280;55019;49.382;11.358;2023-05-19T10:46:13;97020.72;;;18.45;43.77
68197;BME280;55019;49.382;11.358;2023-05-19T10:48:43;97010.81;;;17.48;45.13
68197;BME280;55019;49.382;11.358;2023-05-19T10:51:09;97017.94;;;17.74;45.61
68197;BME280;55019;49.382;11.358;2023-05-19T10:53:40;97008.28;;;17.61;46.23
68197;BME280;55019;49.382;11.358;2023-05-19T10:56:06;97019.72;;;18.46;45.04
68197;BME280;55019;49.382;11.358;2023-05-19T10:58:38;97023.31;;;18.84;45.21
68197;BME280;55019;49.382;11.358;2023-05-19T11:01:14;97018.44;;;18.23;44.47
68197;BME280;55019;49.382;11.358;2023-05-19T11:03:48;97013.66;;;18.33;44.25
68197;BME280;55019;49.382;11.358;2023-05-19T11:06:33;97020.31;;;18.29;45.18
68197;BME280;55019;49.382;11.358;2023-05-19T11:09:12;97026.97;;;18.44;44.17
68197;BME280;55019;49.382;11.358;2023-05-19T11:11:45;97023.03;;;17.95;44.41
68197;BME280;55019;49.382;11.358;2023-05-19T11:14:11;97013.22;;;17.43;45.37
68197;BME280;55019;49.382;11.358;2023-05-19T11:16:38;97018.34;;;17.71;46.04
68197;BME280;55019;49.382;11.358;2023-05-19T11:19:06;97020.38;;;17.75;44.32
68197;BME280;55019;49.382;11.358;2023-05-19T11:22:13;97014.16;;;17.89;45.86
68197;BME280;55019;49.382;11.358;2023-05-19T11:24:45;97014.28;;;18.80;43.15
68197;BME280;55019;49.382;11.358;2023-05-19T11:32:34;97003.78;;;19.63;41.64
68197;BME280;55019;49.382;11.358;2023-05-19T11:35:03;97005.16;;;19.72;42.97
68197;BME280;55019;49.382;11.358;2023-05-19T11:37:33;97008.19;;;18.99;43.77
68197;BME280;55019;49.382;11.358;2023-05-19T11:40:03;97003.91;;;19.37;44.27
68197;BME280;55019;49.382;11.358;2023-05-19T11:42:31;96989.84;;;19.25;42.61
68197;BME280;55019;49.382;11.358;2023-05-19T11:44:58;96999.25;;;19.83;42.49
68197;BME280;55019;49.382;11.358;2023-05-19T11:47:24;96989.41;;;20.40;41.39
68197;BME280;55019;49.382;11.358;2023-05-19T11:49:50;96983.41;;;19.21;42.93
68197;BME280;55019;49.382;11.358;2023-05-19T11:52:16;96981.78;;;20.08;42.33
68197;BME280;55019;49.382;11.358;2023-05-19T11:54:47;96960.28;;;20.72;39.64
68197;BME280;55019;49.382;11.358;2023-05-19T11:57:12;96965.28;;;21.16;42.18
68197;BME280;55019;49.382;11.358;2023-05-19T11:59:38;96965.28;;;20.98;41.46
68197;BME280;55019;49.382;11.358;2023-05-19T12:04:47;96964.69;;;20.30;39.82
68197;BME280;55019;49.382;11.358;2023-05-19T12:07:25;96955.75;;;20.79;40.71
68197;BME280;55019;49.382;11.358;2023-05-19T12:09:51;96946.69;;;21.00;39.53
68197;BME280;55019;49.382;11.358;2023-05-19T12:12:20;96943.44;;;21.52;37.84
68197;BME280;55019;49.382;11.358;2023-05-19T12:14:47;96955.34;;;21.84;40.69
68197;BME280;55019;49.382;11.358;2023-05-19T12:17:15;96960.41;;;22.26;37.19
68197;BME280;55019;49.382;11.358;2023-05-19T12:19:45;96948.00;;;22.67;38.84
68197;BME280;55019;49.382;11.358;2023-05-19T12:22:11;96959.31;;;22.91;36.76
68197;BME280;55019;49.382;11.358;2023-05-19T12:24:37;96952.56;;;22.08;36.87
68197;BME280;55019;49.382;11.358;2023-05-19T12:27:17;96949.03;;;22.66;37.42
68197;BME280;55019;49.382;11.358;2023-05-19T12:29:50;96953.41;;;22.31;39.67
68197;BME280;55019;49.382;11.358;2023-05-19T12:32:23;96951.66;;;22.66;36.89
68197;BME280;55019;49.382;11.358;2023-05-19T12:34:50;96953.81;;;21.47;36.20
68197;BME280;55019;49.382;11.358;2023-05-19T12:37:15;96941.25;;;21.49;36.32
68197;BME280;55019;49.382;11.358;2023-05-19T12:39:42;96940.78;;;21.22;37.95
68197;BME280;55019;49.382;11.358;2023-05-19T12:42:09;96940.47;;;21.30;37.73
68197;BME280;55019;49.382;11.358;2023-05-19T12:44:45;96943.09;;;21.12;39.30
68197;BME280;55019;49.382;11.358;2023-05-19T12:47:12;96941.84;;;20.54;39.75
68197;BME280;55019;49.382;11.358;2023-05-19T12:49:55;96948.22;;;19.48;40.94
68197;BME280;55019;49.382;11.358;2023-05-19T12:52:26;96944.25;;;20.07;40.71
68197;BME280;55019;49.382;11.358;2023-05-19T12:55:03;96938.59;;;20.35;39.40
68197;BME280;55019;49.382;11.358;2023-05-19T12:57:35;96929.97;;;20.94;39.89
68197;BME280;55019;49.382;11.358;2023-05-19T13:00:05;96933.75;;;21.16;40.17
68197;BME280;55019;49.382;11.358;2023-05-19T13:02:33;96932.16;;;20.55;40.16
68197;BME280;55019;49.382;11.358;2023-05-19T13:04:58;96933.19;;;19.99;41.18
68197;BME280;55019;49.382;11.358;2023-05-19T13:07:27;96933.38;;;20.04;40.29
68197;BME280;55019;49.382;11.358;2023-05-19T13:09:52;96928.94;;;19.98;41.60
68197;BME280;55019;49.382;11.358;2023-05-19T13:12:18;96928.22;;;20.46;40.01
68197;BME280;55019;49.382;11.358;2023-05-19T13:14:45;96930.75;;;20.28;41.05
68197;BME280;55019;49.382;11.358;2023-05-19T13:17:10;96932.47;;;19.48;41.05
68197;BME280;55019;49.382;11.358;2023-05-19T13:19:36;96937.63;;;19.30;42.53
68197;BME280;55019;49.382;11.358;2023-05-19T13:22:02;96934.84;;;19.18;42.79
68197;BME280;55019;49.382;11.358;2023-05-19T13:24:28;96932.22;;;19.62;41.80
68197;BME280;55019;49.382;11.358;2023-05-19T13:26:55;96929.91;;;19.79;41.50
68197;BME280;55019;49.382;11.358;2023-05-19T13:29:21;96917.50;;;20.23;39.88
68197;BME280;55019;49.382;11.358;2023-05-19T13:31:46;96911.50;;;20.58;39.11
68197;BME280;55019;49.382;11.358;2023-05-19T13:34:12;96914.59;;;20.73;40.89
68197;BME280;55019;49.382;11.358;2023-05-19T13:36:38;96914.84;;;21.55;39.20
68197;BME280;55019;49.382;11.358;2023-05-19T13:39:04;96919.28;;;22.13;38.76
68197;BME280;55019;49.382;11.358;2023-05-19T13:41:29;96928.75;;;22.03;37.46
68197;BME280;55019;49.382;11.358;2023-05-19T13:43:58;96915.53;;;22.21;36.48
68197;BME280;55019;49.382;11.358;2023-05-19T13:46:24;96918.72;;;21.23;37.62
68197;BME280;55019;49.382;11.358;2023-05-19T13:48:50;96926.13;;;21.62;37.75
68197;BME280;55019;49.382;11.358;2023-05-19T13:51:16;96919.28;;;22.13;38.40
68197;BME280;55019;49.382;11.358;2023-05-19T13:53:41;96909.16;;;22.40;34.82
68197;BME280;55019;49.382;11.358;2023-05-19T13:56:07;96910.00;;;22.11;36.42
68197;BME280;55019;49.382;11.358;2023-05-19T13:58:33;96912.94;;;21.80;38.88
68197;BME280;55019;49.382;11.358;2023-05-19T14:00:58;96903.38;;;21.38;37.77